createdAt,value
2023-03-19T00:00:29.219Z,53.70
2023-03-19T00:02:56.569Z,54.20
2023-03-19T00:05:23.775Z,55.10
2023-03-19T00:07:51.211Z,54.30
2023-03-19T00:10:18.390Z,54.30
2023-03-19T00:12:46.590Z,54.50
2023-03-19T00:15:14.753Z,54.90
2023-03-19T00:17:43.220Z,56.00
2023-03-19T00:20:12.659Z,55.90
2023-03-19T00:22:40.318Z,55.30
2023-03-19T00:25:10.894Z,55.00
2023-03-19T00:27:39.022Z,56.00
2023-03-19T00:30:07.570Z,56.70
2023-03-19T00:32:35.751Z,56.00
2023-03-19T00:35:04.055Z,56.60
2023-03-19T00:37:31.171Z,56.30
2023-03-19T00:39:58.406Z,56.40
2023-03-19T00:42:26.166Z,56.00
2023-03-19T00:44:53.249Z,55.90
2023-03-19T00:47:20.293Z,56.00
2023-03-19T00:49:47.447Z,57.20
2023-03-19T00:52:14.937Z,57.00
2023-03-19T00:54:42.092Z,56.50
2023-03-19T00:57:09.345Z,57.10
2023-03-19T00:59:36.793Z,56.90
2023-03-19T01:02:04.330Z,57.40
2023-03-19T01:04:31.558Z,57.10
2023-03-19T01:09:26.104Z,57.40
2023-03-19T01:11:53.171Z,57.50
2023-03-19T01:14:20.536Z,57.00
2023-03-19T01:16:49.118Z,57.70
2023-03-19T01:19:17.313Z,57.90
2023-03-19T01:21:46.586Z,57.60
2023-03-19T01:24:13.827Z,57.90
2023-03-19T01:26:41.126Z,58.00
2023-03-19T01:29:08.635Z,58.30
2023-03-19T01:31:37.473Z,57.60
2023-03-19T01:34:04.927Z,57.50
2023-03-19T01:36:32.330Z,57.50
2023-03-19T01:38:59.691Z,58.00
2023-03-19T01:41:27.302Z,58.10
2023-03-19T01:43:54.359Z,57.80
2023-03-19T01:46:30.983Z,57.80
2023-03-19T01:49:01.177Z,57.50
2023-03-19T01:51:38.647Z,57.60
2023-03-19T01:54:10.560Z,58.30
2023-03-19T01:56:39.223Z,58.20
2023-03-19T01:59:12.609Z,58.30
2023-03-19T02:01:47.895Z,58.40
2023-03-19T02:04:15.166Z,59.00
2023-03-19T02:06:43.709Z,58.00
2023-03-19T02:09:10.985Z,58.00
2023-03-19T02:11:38.444Z,58.00
2023-03-19T02:14:06.158Z,57.70
2023-03-19T02:16:33.403Z,58.50
2023-03-19T02:19:01.463Z,57.90
2023-03-19T02:21:29.297Z,58.80
2023-03-19T02:24:21.866Z,58.30
2023-03-19T02:26:50.652Z,58.00
2023-03-19T02:29:18.030Z,58.20
2023-03-19T02:31:45.557Z,57.80
2023-03-19T02:34:37.676Z,57.60
2023-03-19T02:37:14.944Z,57.50
2023-03-19T02:39:51.846Z,57.90
2023-03-19T02:42:21.634Z,59.00
2023-03-19T02:44:48.839Z,58.70
2023-03-19T02:47:16.256Z,58.30
2023-03-19T02:49:43.478Z,59.10
2023-03-19T02:52:11.078Z,59.70
2023-03-19T02:54:38.409Z,58.90
2023-03-19T02:57:05.720Z,58.90
2023-03-19T02:59:33.144Z,59.40
2023-03-19T03:02:00.610Z,59.10
2023-03-19T03:04:29.208Z,58.90
2023-03-19T03:06:56.680Z,59.10
2023-03-19T03:09:23.951Z,58.90
2023-03-19T03:11:51.151Z,59.30
2023-03-19T03:14:18.787Z,59.00
2023-03-19T03:16:45.985Z,60.40
2023-03-19T03:19:13.476Z,59.80
2023-03-19T03:21:41.353Z,59.40
2023-03-19T03:24:09.515Z,59.20
2023-03-19T03:26:39.038Z,59.60
2023-03-19T03:29:06.593Z,59.40
2023-03-19T03:31:34.820Z,60.50
2023-03-19T03:34:02.386Z,60.60
2023-03-19T03:36:29.488Z,59.70
2023-03-19T03:38:56.689Z,59.60
2023-03-19T03:41:23.781Z,59.80
2023-03-19T03:43:50.948Z,61.20
2023-03-19T03:46:18.149Z,60.90
2023-03-19T03:48:45.313Z,60.30
2023-03-19T03:51:12.436Z,60.10
2023-03-19T03:53:39.565Z,60.00
2023-03-19T03:56:07.041Z,60.50
2023-03-19T03:58:34.176Z,60.00
2023-03-19T04:01:01.308Z,59.90
2023-03-19T04:03:28.426Z,59.80
2023-03-19T04:05:56.020Z,59.90
2023-03-19T04:08:23.538Z,59.90
2023-03-19T04:10:50.726Z,59.80
2023-03-19T04:13:17.858Z,60.00
2023-03-19T04:15:45.247Z,59.90
2023-03-19T04:18:12.338Z,60.10
2023-03-19T04:20:40.222Z,60.00
2023-03-19T04:23:07.340Z,60.40
2023-03-19T04:25:34.462Z,60.30
2023-03-19T04:28:02.097Z,60.10
2023-03-19T04:30:29.340Z,60.00
2023-03-19T04:32:56.911Z,60.00
2023-03-19T04:35:24.158Z,60.00
2023-03-19T04:37:51.746Z,60.00
2023-03-19T04:40:19.449Z,60.10
2023-03-19T04:42:46.779Z,60.10
2023-03-19T04:45:13.886Z,60.30
2023-03-19T04:47:40.976Z,60.50
2023-03-19T04:50:14.764Z,60.30
2023-03-19T04:52:41.942Z,60.40
2023-03-19T04:55:10.504Z,60.60
2023-03-19T04:57:37.675Z,60.40
2023-03-19T05:00:05.114Z,61.00
2023-03-19T05:02:32.227Z,61.20
2023-03-19T05:04:59.247Z,61.20
2023-03-19T05:07:26.510Z,60.90
2023-03-19T05:09:53.672Z,61.00
2023-03-19T05:12:20.963Z,61.00
2023-03-19T05:14:48.063Z,61.60
2023-03-19T05:17:15.909Z,61.30
2023-03-19T05:19:43.546Z,61.40
2023-03-19T05:22:10.696Z,61.20
2023-03-19T05:24:38.468Z,61.00
2023-03-19T05:27:05.664Z,60.90
2023-03-19T05:29:32.755Z,61.20
2023-03-19T05:32:03.088Z,61.10
2023-03-19T05:34:30.266Z,61.30
2023-03-19T05:36:57.634Z,61.10
2023-03-19T05:39:24.796Z,61.20
2023-03-19T05:41:52.512Z,60.90
2023-03-19T05:44:21.420Z,61.20
2023-03-19T05:46:48.761Z,61.40
2023-03-19T05:49:15.917Z,61.40
2023-03-19T05:51:42.942Z,61.20
2023-03-19T05:54:10.076Z,61.20
2023-03-19T05:56:37.417Z,61.50
2023-03-19T05:59:04.575Z,61.50
2023-03-19T06:01:31.805Z,61.40
2023-03-19T06:03:58.933Z,61.40
2023-03-19T06:06:32.088Z,61.40
2023-03-19T06:08:59.193Z,61.10
2023-03-19T06:11:26.490Z,61.00
2023-03-19T06:13:53.668Z,61.00
2023-03-19T06:16:21.228Z,60.80
2023-03-19T06:18:48.394Z,60.50
2023-03-19T06:21:15.880Z,60.40
2023-03-19T06:23:42.944Z,60.30
2023-03-19T06:26:10.107Z,60.00
2023-03-19T06:28:37.295Z,59.90
2023-03-19T06:31:04.750Z,59.70
2023-03-19T06:33:32.414Z,59.50
2023-03-19T06:35:59.965Z,59.60
2023-03-19T06:38:27.271Z,59.60
2023-03-19T06:40:54.716Z,59.30
2023-03-19T06:43:22.042Z,59.20
2023-03-19T06:45:49.195Z,59.10
2023-03-19T06:48:17.089Z,59.10
2023-03-19T06:50:45.929Z,59.00
2023-03-19T06:53:14.393Z,58.80
2023-03-19T06:55:41.688Z,58.70
2023-03-19T06:58:08.849Z,58.60
2023-03-19T07:00:36.214Z,58.60
2023-03-19T07:03:03.729Z,58.40
2023-03-19T07:05:30.876Z,58.80
2023-03-19T07:07:57.943Z,58.30
2023-03-19T07:10:25.109Z,58.10
2023-03-19T07:12:52.176Z,58.10
2023-03-19T07:15:21.451Z,58.00
2023-03-19T07:17:49.458Z,58.10
2023-03-19T07:20:16.907Z,57.70
2023-03-19T07:22:43.987Z,57.60
2023-03-19T07:25:11.150Z,57.60
2023-03-19T07:27:38.238Z,57.70
2023-03-19T07:30:05.601Z,57.50
2023-03-19T07:32:32.816Z,57.40
2023-03-19T07:34:59.976Z,57.00
2023-03-19T07:37:27.054Z,57.00
2023-03-19T07:39:54.213Z,56.80
2023-03-19T07:42:21.298Z,56.80
2023-03-19T07:44:48.356Z,56.70
2023-03-19T07:47:26.399Z,56.80
2023-03-19T07:49:55.809Z,56.80
2023-03-19T07:52:23.550Z,56.50
2023-03-19T07:54:50.910Z,56.70
2023-03-19T07:57:19.515Z,56.60
2023-03-19T07:59:47.102Z,56.40
2023-03-19T08:02:14.675Z,56.40
2023-03-19T08:04:42.150Z,56.00
2023-03-19T08:07:11.176Z,55.80
2023-03-19T08:09:39.563Z,55.80
2023-03-19T08:12:07.423Z,55.40
2023-03-19T08:14:34.789Z,54.70
2023-03-19T08:17:02.192Z,55.10
2023-03-19T08:19:29.259Z,54.90
2023-03-19T08:21:56.704Z,54.40
2023-03-19T08:24:24.156Z,54.20
2023-03-19T08:26:51.658Z,54.50
2023-03-19T08:29:19.183Z,54.10
2023-03-19T08:31:46.455Z,54.20
2023-03-19T08:34:13.828Z,53.20
2023-03-19T08:36:41.197Z,52.70
2023-03-19T08:39:08.701Z,52.50
2023-03-19T08:41:36.111Z,52.30
2023-03-19T08:44:03.505Z,52.00
2023-03-19T08:46:30.720Z,51.90
2023-03-19T08:48:57.861Z,52.00
2023-03-19T08:51:26.318Z,51.50
2023-03-19T08:53:53.796Z,51.00
2023-03-19T08:56:21.231Z,50.90
2023-03-19T08:58:48.400Z,50.90
2023-03-19T09:01:15.698Z,50.70
2023-03-19T09:03:46.777Z,50.60
2023-03-19T09:06:28.369Z,50.60
2023-03-19T09:08:58.379Z,50.50
2023-03-19T09:11:25.577Z,50.30
2023-03-19T09:13:52.802Z,50.10
2023-03-19T09:16:20.094Z,50.00
2023-03-19T09:18:47.309Z,50.30
2023-03-19T09:21:14.612Z,49.90
2023-03-19T09:23:41.743Z,49.50
2023-03-19T09:26:08.856Z,48.80
2023-03-19T09:28:36.625Z,48.20
2023-03-19T09:31:07.270Z,48.20
2023-03-19T09:33:34.449Z,48.50
2023-03-19T09:36:01.592Z,48.10
2023-03-19T09:38:29.778Z,47.80
2023-03-19T09:41:19.087Z,48.00
2023-03-19T09:44:06.284Z,47.90
2023-03-19T09:46:43.397Z,47.30
2023-03-19T09:49:16.420Z,47.30
2023-03-19T09:52:03.664Z,47.20
2023-03-19T09:54:39.336Z,47.20
2023-03-19T09:57:09.771Z,47.00
2023-03-19T09:59:37.722Z,46.00
2023-03-19T10:02:19.682Z,46.40
2023-03-19T10:04:47.383Z,46.40
2023-03-19T10:07:36.029Z,46.10
2023-03-19T10:10:18.642Z,46.00
2023-03-19T10:13:23.594Z,45.70
2023-03-19T10:15:51.877Z,45.40
2023-03-19T10:18:25.024Z,45.10
2023-03-19T10:21:09.111Z,44.80
2023-03-19T10:23:48.423Z,44.80
2023-03-19T10:26:26.456Z,45.00
2023-03-19T10:29:11.188Z,45.20
2023-03-19T10:31:49.325Z,44.90
2023-03-19T10:34:34.909Z,45.10
2023-03-19T10:37:26.816Z,44.80
2023-03-19T10:40:02.306Z,45.30
2023-03-19T10:42:38.125Z,45.20
2023-03-19T10:45:28.204Z,45.20
2023-03-19T10:47:59.192Z,44.80
2023-03-19T10:50:41.825Z,45.20
2023-03-19T10:53:14.816Z,45.10
2023-03-19T10:55:50.948Z,45.00
2023-03-19T10:58:20.446Z,44.60
2023-03-19T11:00:49.481Z,44.50
2023-03-19T11:03:50.944Z,44.70
2023-03-19T11:06:23.658Z,44.60
2023-03-19T11:08:53.570Z,44.50
2023-03-19T11:11:50.555Z,43.90
2023-03-19T11:14:21.009Z,44.00
2023-03-19T11:16:58.895Z,42.30
2023-03-19T11:19:31.546Z,43.20
2023-03-19T11:22:08.074Z,43.00
2023-03-19T11:24:48.298Z,42.80
2023-03-19T11:27:15.373Z,42.80
2023-03-19T11:29:44.491Z,42.70
2023-03-19T11:32:23.562Z,42.30
2023-03-19T11:35:01.666Z,42.10
2023-03-19T11:37:47.082Z,41.80
2023-03-19T11:41:06.317Z,41.40
2023-03-19T11:44:07.241Z,41.40
2023-03-19T11:47:14.867Z,41.10
2023-03-19T11:50:18.478Z,40.90
2023-03-19T11:53:10.969Z,41.00
2023-03-19T11:55:43.231Z,41.00
2023-03-19T11:58:43.514Z,40.80
2023-03-19T12:01:33.273Z,40.70
2023-03-19T12:04:25.899Z,40.20
2023-03-19T12:07:28.455Z,40.50
2023-03-19T12:10:30.328Z,40.20
2023-03-19T12:13:27.793Z,40.10
2023-03-19T12:16:06.265Z,39.90
2023-03-19T12:18:52.477Z,39.80
2023-03-19T12:21:47.415Z,39.60
2023-03-19T12:24:53.113Z,39.50
2023-03-19T12:27:34.667Z,39.30
2023-03-19T12:30:17.235Z,39.40
2023-03-19T12:33:10.536Z,39.40
2023-03-19T12:35:39.811Z,39.40
2023-03-19T12:38:18.799Z,39.70
2023-03-19T12:40:58.579Z,39.20
2023-03-19T12:43:38.234Z,39.50
2023-03-19T12:46:18.996Z,39.30
2023-03-19T12:48:58.235Z,38.90
2023-03-19T12:51:36.801Z,38.90
2023-03-19T12:54:13.475Z,38.90
2023-03-19T12:56:53.576Z,38.30
2023-03-19T12:59:47.792Z,38.70
2023-03-19T13:02:30.628Z,38.80
2023-03-19T13:05:09.339Z,38.80
2023-03-19T13:07:51.109Z,38.70
2023-03-19T13:10:19.861Z,38.70
2023-03-19T13:12:48.991Z,38.30
2023-03-19T13:15:23.087Z,38.70
2023-03-19T13:18:09.911Z,39.00
2023-03-19T13:21:02.004Z,39.30
2023-03-19T13:23:35.142Z,39.20
2023-03-19T13:26:08.009Z,39.20
2023-03-19T13:28:37.651Z,39.20
2023-03-19T13:31:07.542Z,39.30
2023-03-19T13:33:35.602Z,38.80
2023-03-19T13:36:05.886Z,38.80
2023-03-19T13:38:40.599Z,38.70
2023-03-19T13:41:33.424Z,38.70
2023-03-19T13:44:21.514Z,38.40
2023-03-19T13:46:51.421Z,38.70
2023-03-19T13:49:29.941Z,38.80
2023-03-19T13:52:04.590Z,38.90
2023-03-19T13:54:40.895Z,38.90
2023-03-19T13:57:19.587Z,38.90
2023-03-19T13:59:50.804Z,38.80
2023-03-19T14:02:27.008Z,38.80
2023-03-19T14:05:00.761Z,39.00
2023-03-19T14:07:33.666Z,39.00
2023-03-19T14:10:01.050Z,38.60
2023-03-19T14:12:39.018Z,38.90
2023-03-19T14:15:09.432Z,38.90
2023-03-19T14:17:56.521Z,38.70
2023-03-19T14:20:35.478Z,39.00
2023-03-19T14:23:38.455Z,38.40
2023-03-19T14:26:16.454Z,38.20
2023-03-19T14:28:46.613Z,37.60
2023-03-19T14:31:32.859Z,37.80
2023-03-19T14:34:08.517Z,37.90
2023-03-19T14:36:40.825Z,38.10
2023-03-19T14:39:31.292Z,38.30
2023-03-19T14:42:23.761Z,38.40
2023-03-19T14:45:00.000Z,38.20
2023-03-19T14:47:41.352Z,38.10
2023-03-19T14:50:11.621Z,38.30
2023-03-19T14:52:50.316Z,38.60
2023-03-19T14:55:17.733Z,38.50
2023-03-19T14:57:44.910Z,38.40
2023-03-19T15:00:18.310Z,38.50
2023-03-19T15:02:49.224Z,38.70
2023-03-19T15:05:24.408Z,38.70
2023-03-19T15:07:56.150Z,38.90
2023-03-19T15:10:36.040Z,38.90
2023-03-19T15:13:25.085Z,39.10
2023-03-19T15:16:26.798Z,39.10
2023-03-19T15:18:54.370Z,39.20
2023-03-19T15:21:21.945Z,39.40
2023-03-19T15:23:49.439Z,39.50
2023-03-19T15:26:28.659Z,39.60
2023-03-19T15:28:58.005Z,39.60
2023-03-19T15:31:51.483Z,40.30
2023-03-19T15:34:28.163Z,39.80
2023-03-19T15:37:03.621Z,40.00
2023-03-19T15:39:37.030Z,40.00
2023-03-19T15:42:05.156Z,40.00
2023-03-19T15:44:39.762Z,40.10
2023-03-19T15:47:12.323Z,40.20
2023-03-19T15:49:43.621Z,40.30
2023-03-19T15:52:14.937Z,40.30
2023-03-19T15:54:42.714Z,40.30
2023-03-19T15:57:13.884Z,40.40
2023-03-19T15:59:42.108Z,40.40
2023-03-19T16:02:17.830Z,40.60
2023-03-19T16:05:13.874Z,40.60
2023-03-19T16:07:44.138Z,40.60
2023-03-19T16:10:30.943Z,40.70
2023-03-19T16:13:05.138Z,40.80
2023-03-19T16:15:46.719Z,40.80
2023-03-19T16:18:16.829Z,40.90
2023-03-19T16:20:58.480Z,41.00
2023-03-19T16:23:31.737Z,41.00
2023-03-19T16:26:24.411Z,41.00
2023-03-19T16:28:59.304Z,41.30
2023-03-19T16:31:31.944Z,41.50
2023-03-19T16:33:59.985Z,41.40
2023-03-19T16:36:32.810Z,41.50
2023-03-19T16:39:24.516Z,41.50
2023-03-19T16:42:13.085Z,41.60
2023-03-19T16:44:42.228Z,41.70
2023-03-19T16:47:14.716Z,41.90
2023-03-19T16:49:41.877Z,42.20
2023-03-19T16:52:24.169Z,42.20
2023-03-19T16:54:52.109Z,42.50
2023-03-19T16:57:19.821Z,42.60
2023-03-19T16:59:47.502Z,43.10
2023-03-19T17:02:18.171Z,43.70
2023-03-19T17:04:46.201Z,43.40
2023-03-19T17:07:13.641Z,43.30
2023-03-19T17:09:40.840Z,43.50
2023-03-19T17:12:14.662Z,43.30
2023-03-19T17:14:42.622Z,44.70
2023-03-19T17:17:19.204Z,44.00
2023-03-19T17:19:47.728Z,43.90
2023-03-19T17:22:14.910Z,43.40
2023-03-19T17:24:42.439Z,43.40
2023-03-19T17:27:10.075Z,43.30
2023-03-19T17:29:37.168Z,43.50
2023-03-19T17:32:06.952Z,43.90
2023-03-19T17:34:35.853Z,44.70
2023-03-19T17:37:04.182Z,44.30
2023-03-19T17:39:32.076Z,44.50
2023-03-19T17:41:59.421Z,44.40
2023-03-19T17:44:27.948Z,46.20
2023-03-19T17:46:56.154Z,45.40
2023-03-19T17:49:32.728Z,47.50
2023-03-19T17:52:00.812Z,47.30
2023-03-19T17:54:28.091Z,47.10
2023-03-19T17:56:56.493Z,46.80
2023-03-19T17:59:23.823Z,46.60
2023-03-19T18:01:52.190Z,47.60
2023-03-19T18:04:21.147Z,47.20
2023-03-19T18:06:56.932Z,46.70
2023-03-19T18:09:32.809Z,47.30
2023-03-19T18:11:59.969Z,46.20
2023-03-19T18:14:27.172Z,46.20
2023-03-19T18:16:54.267Z,46.90
2023-03-19T18:19:33.612Z,46.90
2023-03-19T18:22:00.997Z,46.70
2023-03-19T18:24:28.204Z,46.70
2023-03-19T18:26:58.016Z,47.80
2023-03-19T18:29:25.293Z,46.60
2023-03-19T18:31:52.744Z,46.50
2023-03-19T18:34:20.001Z,47.50
2023-03-19T18:36:49.188Z,47.70
2023-03-19T18:39:16.724Z,48.40
2023-03-19T18:41:45.149Z,47.50
2023-03-19T18:44:12.626Z,47.40
2023-03-19T18:46:41.011Z,48.00
2023-03-19T18:49:14.068Z,48.60
2023-03-19T18:52:00.685Z,48.30
2023-03-19T18:54:30.880Z,48.50
2023-03-19T18:57:00.296Z,47.80
2023-03-19T18:59:32.988Z,50.40
2023-03-19T19:02:34.179Z,48.40
2023-03-19T19:05:01.938Z,47.90
2023-03-19T19:07:30.576Z,49.30
2023-03-19T19:09:57.693Z,49.20
2023-03-19T19:12:26.638Z,48.50
2023-03-19T19:14:53.885Z,49.80
2023-03-19T19:17:24.636Z,50.60
2023-03-19T19:19:51.808Z,50.30
2023-03-19T19:22:20.713Z,52.00
2023-03-19T19:24:47.847Z,52.10
2023-03-19T19:27:22.452Z,51.80
2023-03-19T19:29:50.304Z,49.60
2023-03-19T19:32:26.036Z,49.60
2023-03-19T19:34:53.524Z,50.20
2023-03-19T19:37:23.228Z,52.10
2023-03-19T19:39:50.779Z,51.20
2023-03-19T19:42:20.774Z,51.80
2023-03-19T19:44:53.378Z,50.80
2023-03-19T19:47:20.539Z,50.00
2023-03-19T19:49:47.628Z,50.60
2023-03-19T19:52:17.312Z,50.00
2023-03-19T19:54:45.636Z,50.30
2023-03-19T19:57:24.827Z,51.50
2023-03-19T19:59:53.462Z,51.50
2023-03-19T20:02:23.193Z,52.60
2023-03-19T20:04:50.430Z,51.10
2023-03-19T20:07:17.580Z,50.70
2023-03-19T20:09:44.705Z,50.30
2023-03-19T20:12:17.906Z,50.40
2023-03-19T20:14:46.189Z,50.90
2023-03-19T20:17:16.245Z,50.40
2023-03-19T20:19:44.281Z,50.30
2023-03-19T20:22:16.055Z,51.00
2023-03-19T20:24:45.127Z,50.80
2023-03-19T20:27:23.689Z,50.90
2023-03-19T20:29:51.921Z,50.80
2023-03-19T20:32:39.941Z,50.40
2023-03-19T20:35:15.973Z,52.50
2023-03-19T20:37:43.440Z,51.10
2023-03-19T20:40:12.456Z,51.40
2023-03-19T20:42:40.572Z,52.20
2023-03-19T20:45:14.921Z,51.20
2023-03-19T20:47:42.039Z,51.60
2023-03-19T20:50:17.545Z,51.70
2023-03-19T20:52:44.697Z,50.80
2023-03-19T20:55:17.634Z,52.10
2023-03-19T20:57:46.350Z,51.10
2023-03-19T21:00:29.899Z,51.80
2023-03-19T21:02:59.269Z,51.50
2023-03-19T21:05:38.907Z,51.20
2023-03-19T21:08:26.512Z,51.60
2023-03-19T21:10:53.612Z,52.40
2023-03-19T21:13:21.819Z,51.50
2023-03-19T21:15:52.201Z,51.80
2023-03-19T21:18:19.484Z,53.20
2023-03-19T21:20:49.726Z,51.70
2023-03-19T21:23:19.578Z,51.80
2023-03-19T21:25:47.184Z,51.60
2023-03-19T21:28:20.400Z,51.40
2023-03-19T21:30:47.544Z,51.90
2023-03-19T21:33:27.143Z,53.30
2023-03-19T21:35:56.091Z,52.30
2023-03-19T21:38:23.751Z,53.30
2023-03-19T21:40:54.264Z,52.20
2023-03-19T21:43:43.483Z,52.00
2023-03-19T21:46:24.506Z,53.10
2023-03-19T21:48:54.597Z,54.40
2023-03-19T21:51:22.684Z,52.70
2023-03-19T21:53:49.848Z,52.90
2023-03-19T21:56:43.272Z,53.40
2023-03-19T21:59:19.791Z,52.30
2023-03-19T22:01:49.955Z,52.30
2023-03-19T22:04:19.229Z,55.00
2023-03-19T22:06:46.889Z,53.40
2023-03-19T22:09:14.008Z,52.70
2023-03-19T22:11:46.078Z,53.00
2023-03-19T22:14:24.709Z,53.50
2023-03-19T22:16:54.187Z,53.70
2023-03-19T22:19:21.870Z,54.30
2023-03-19T22:21:49.603Z,55.70
2023-03-19T22:24:16.757Z,55.60
2023-03-19T22:26:44.917Z,55.70
2023-03-19T22:29:25.368Z,56.70
2023-03-19T22:31:53.854Z,55.20
2023-03-19T22:34:23.874Z,54.90
2023-03-19T22:36:51.453Z,54.40
2023-03-19T22:39:18.591Z,54.40
2023-03-19T22:41:48.405Z,55.10
2023-03-19T22:44:28.774Z,55.10
2023-03-19T22:46:58.570Z,55.90
2023-03-19T22:49:28.076Z,54.90
2023-03-19T22:51:56.556Z,56.40
2023-03-19T22:54:23.998Z,55.00
2023-03-19T22:56:51.157Z,55.00
2023-03-19T22:59:18.754Z,55.60
2023-03-19T23:01:47.352Z,57.10
2023-03-19T23:04:20.078Z,55.90
2023-03-19T23:06:47.723Z,55.10
2023-03-19T23:09:22.223Z,54.80
2023-03-19T23:11:49.448Z,55.60
2023-03-19T23:14:28.398Z,55.40
2023-03-19T23:19:30.092Z,56.60
2023-03-19T23:21:58.782Z,57.50
2023-03-19T23:24:26.064Z,56.90
2023-03-19T23:26:55.768Z,57.60
2023-03-19T23:29:26.978Z,56.40
2023-03-19T23:31:54.035Z,56.50
2023-03-19T23:34:22.179Z,57.70
2023-03-19T23:36:49.353Z,57.30
2023-03-19T23:39:16.470Z,57.00
2023-03-19T23:41:54.560Z,57.60
2023-03-19T23:44:22.044Z,56.70
2023-03-19T23:46:50.893Z,58.00
2023-03-19T23:49:29.113Z,56.90
2023-03-19T23:51:56.709Z,58.30
2023-03-19T23:54:28.611Z,59.30
2023-03-19T23:56:59.801Z,57.80
2023-03-19T23:59:34.364Z,58.00
